Wabbaseka, Arkansas
Current Conditions -  °F | °C
As of 7:53 PM on Monday 24 Nov 2014 (Local Time) from KPBF Reporting Station
Clear Clear  
Wind Chill: 45°   Ceiling: Unl
Heat Index: 47°   Visibility: 10mi
Dew Point: 32°   Wind: 5mph
Humidity: 56%   Direction: 240°WSW
Pressure: 30.05"   Gusts: NA
Location:  34.36°N, 91.8°W
Report Text: KPBF 250153Z AUTO 24004KT 10SM CLR 08/00 A3005 RMK AO2 SLP174 T00830000
Loading
Personal Weather Stations






























Interactive Weather Map New forecast layout! Learn more

10-Day Weather Forecast

Advertisements
Track Severe Weather on mobile